Time;durP1;ratioP1;P1;durP2;ratioP2;P2;SDS_P1;SDS_P2;PMS_P1;PMS_P2;Temp;Humidity;BMP_temperature;BMP_pressure;BME280_temperature;BME280_humidity;BME280_pressure;Samples;Min_cycle;Max_cycle;Signal;HPM_P1;HPM_P2
2022/11/18 00:00:57;;;;;;;;;;;23.40;79.90;;;;;;5049693;28;20136;-73
2022/11/18 00:03:25;;;;;;;;;;;23.40;82.30;;;;;;5053761;28;20507;-73
2022/11/18 00:06:00;;;;;;;;;;;23.90;81.80;;;;;;5051768;28;20346;-70
2022/11/18 00:08:27;;;;;;;;;;;23.90;80.40;;;;;;5051769;28;19921;-71
2022/11/18 00:10:54;;;;;;;;;;;23.70;79.50;;;;;;5048979;28;22000;-70
2022/11/18 00:16:11;;;;;;;;;;;24.00;79.50;;;;;;5051808;28;19927;-70
2022/11/18 00:18:38;;;;;;;;;;;24.10;79.40;;;;;;5055014;28;19924;-71
2022/11/18 00:21:06;;;;;;;;;;;23.90;77.90;;;;;;5054603;28;19916;-71
2022/11/18 00:23:33;;;;;;;;;;;23.90;79.10;;;;;;5055089;28;19912;-71
2022/11/18 00:26:13;;;;;;;;;;;23.70;78.90;;;;;;5056539;28;20375;-74
2022/11/18 00:28:40;;;;;;;;;;;23.50;78.60;;;;;;5054151;28;20077;-69
2022/11/18 00:31:08;;;;;;;;;;;24.10;78.30;;;;;;5057787;28;20040;-70
2022/11/18 00:33:38;;;;;;;;;;;25.00;82.10;;;;;;5053091;28;20276;-70
2022/11/18 00:36:05;;;;;;;;;;;25.80;78.50;;;;;;5053825;28;19923;-70
2022/11/18 00:38:32;;;;;;;;;;;26.30;76.60;;;;;;5054666;28;19916;-70
2022/11/18 00:41:00;;;;;;;;;;;26.70;77.70;;;;;;5053091;28;19939;-71
2022/11/18 00:43:26;;;;;;;;;;;27.00;74.80;;;;;;5055118;28;19940;-70
2022/11/18 00:45:53;;;;;;;;;;;27.10;73.10;;;;;;5051089;28;19932;-71
2022/11/18 00:48:21;;;;;;;;;;;26.50;76.40;;;;;;5054479;28;20007;-73
2022/11/18 00:50:48;;;;;;;;;;;26.00;76.30;;;;;;5052924;28;19916;-71
2022/11/18 00:53:15;;;;;;;;;;;25.50;76.80;;;;;;5049400;28;19916;-72
2022/11/18 00:55:42;;;;;;;;;;;25.20;76.70;;;;;;5054585;28;20013;-72
2022/11/18 00:58:09;;;;;;;;;;;25.50;79.00;;;;;;5053778;28;19949;-73
2022/11/18 01:00:35;;;;;;;;;;;26.20;79.60;;;;;;5053856;28;19916;-73
2022/11/18 01:03:02;;;;;;;;;;;26.60;73.20;;;;;;5054194;28;19916;-72
2022/11/18 01:05:29;;;;;;;;;;;26.80;76.30;;;;;;5054046;28;19925;-72
2022/11/18 01:07:56;;;;;;;;;;;27.10;73.70;;;;;;5051983;28;19933;-72
2022/11/18 01:10:22;;;;;;;;;;;27.20;71.60;;;;;;5054489;28;19924;-73
2022/11/18 01:15:43;;;;;;;;;;;26.80;74.30;;;;;;5054866;28;19920;-72
2022/11/18 01:18:10;;;;;;;;;;;26.20;75.20;;;;;;5054786;28;19920;-74
2022/11/18 01:20:36;;;;;;;;;;;25.50;75.10;;;;;;5052352;28;19917;-72
2022/11/18 01:23:03;;;;;;;;;;;25.20;74.30;;;;;;5055183;28;20788;-73
2022/11/18 01:25:30;;;;;;;;;;;25.40;74.90;;;;;;5052362;28;19929;-72
2022/11/18 01:27:57;;;;;;;;;;;25.20;74.90;;;;;;5053774;28;20008;-73
2022/11/18 01:30:23;;;;;;;;;;;25.00;75.20;;;;;;5055869;28;20007;-72
2022/11/18 01:32:50;;;;;;;;;;;25.30;76.70;;;;;;5056829;28;19924;-72
2022/11/18 01:35:19;;;;;;;;;;;25.20;74.90;;;;;;5054224;28;19917;-72
2022/11/18 01:37:46;;;;;;;;;;;25.70;75.90;;;;;;5048586;28;19970;-73
2022/11/18 01:40:13;;;;;;;;;;;26.20;73.30;;;;;;5053757;28;20441;-73
2022/11/18 01:42:39;;;;;;;;;;;26.50;72.10;;;;;;5055420;28;19989;-72
2022/11/18 01:45:09;;;;;;;;;;;26.40;73.60;;;;;;5059115;28;19924;-72
2022/11/18 01:47:41;;;;;;;;;;;26.90;75.70;;;;;;5058448;28;19917;-72
2022/11/18 01:50:08;;;;;;;;;;;27.20;73.70;;;;;;5056783;28;20290;-72
2022/11/18 01:52:35;;;;;;;;;;;27.50;73.20;;;;;;5057106;28;19927;-72
2022/11/18 01:55:07;;;;;;;;;;;27.90;73.60;;;;;;5043661;28;19917;-72
2022/11/18 01:57:34;;;;;;;;;;;27.90;70.80;;;;;;5038348;28;20512;-73
2022/11/18 02:00:02;;;;;;;;;;;27.70;71.90;;;;;;5059066;28;20367;-73
2022/11/18 02:02:38;;;;;;;;;;;27.80;71.40;;;;;;5056680;28;19943;-73
2022/11/18 02:05:07;;;;;;;;;;;27.80;72.10;;;;;;5056908;28;19932;-72
2022/11/18 02:07:35;;;;;;;;;;;27.20;72.20;;;;;;5056964;28;20365;-73
2022/11/18 02:10:03;;;;;;;;;;;26.50;72.50;;;;;;5057636;28;19933;-73
2022/11/18 02:12:30;;;;;;;;;;;26.00;72.90;;;;;;5055867;28;19964;-74
2022/11/18 02:14:57;;;;;;;;;;;26.50;77.80;;;;;;5055026;28;19927;-72
2022/11/18 02:17:35;;;;;;;;;;;26.60;74.70;;;;;;5031333;28;20373;-73
2022/11/18 02:20:13;;;;;;;;;;;26.80;75.90;;;;;;5057146;28;19962;-72
2022/11/18 02:22:48;;;;;;;;;;;26.80;74.80;;;;;;5054756;28;19932;-72
2022/11/18 02:25:19;;;;;;;;;;;26.30;74.50;;;;;;5054412;28;19920;-71
2022/11/18 02:28:00;;;;;;;;;;;25.90;74.70;;;;;;5057142;28;20028;-72
2022/11/18 02:30:29;;;;;;;;;;;26.00;74.80;;;;;;5060335;28;20333;-72
2022/11/18 02:33:05;;;;;;;;;;;26.30;74.10;;;;;;5057038;28;20449;-73
2022/11/18 02:35:35;;;;;;;;;;;26.90;74.30;;;;;;5048796;28;20386;-72
2022/11/18 02:38:01;;;;;;;;;;;27.50;74.50;;;;;;5055638;28;19917;-72
2022/11/18 02:40:36;;;;;;;;;;;27.50;72.70;;;;;;5051640;28;20050;-72
2022/11/18 02:43:15;;;;;;;;;;;26.70;73.60;;;;;;5053580;28;20031;-72
2022/11/18 02:45:43;;;;;;;;;;;26.20;73.90;;;;;;5052323;28;19981;-71
2022/11/18 02:48:11;;;;;;;;;;;25.80;74.00;;;;;;5054853;28;19946;-74
2022/11/18 02:50:41;;;;;;;;;;;25.50;74.50;;;;;;5041984;28;20400;-72
2022/11/18 02:53:10;;;;;;;;;;;25.20;73.80;;;;;;5061194;28;20317;-72
2022/11/18 02:55:37;;;;;;;;;;;24.80;75.10;;;;;;5063644;28;19919;-73
2022/11/18 02:58:05;;;;;;;;;;;24.70;76.10;;;;;;5053853;28;19936;-72
2022/11/18 03:00:32;;;;;;;;;;;25.40;76.20;;;;;;5055930;28;20047;-72
2022/11/18 03:02:59;;;;;;;;;;;26.00;75.00;;;;;;5052977;28;20512;-72
2022/11/18 03:05:44;;;;;;;;;;;26.50;74.70;;;;;;5052173;28;19924;-72
2022/11/18 03:08:17;;;;;;;;;;;26.80;73.50;;;;;;5058386;28;19920;-72
2022/11/18 03:10:50;;;;;;;;;;;26.40;72.60;;;;;;5053060;28;19936;-72
2022/11/18 03:13:24;;;;;;;;;;;26.60;73.20;;;;;;5052841;28;20222;-72
2022/11/18 03:15:53;;;;;;;;;;;26.80;72.90;;;;;;5054536;28;19942;-73
2022/11/18 03:18:20;;;;;;;;;;;27.40;77.20;;;;;;5053674;28;19913;-74
2022/11/18 03:20:52;;;;;;;;;;;27.70;76.60;;;;;;5052417;28;19917;-72
2022/11/18 03:23:22;;;;;;;;;;;27.40;73.20;;;;;;5053639;28;19931;-73
2022/11/18 03:26:30;;;;;;;;;;;26.80;72.70;;;;;;5051902;28;19954;-72
2022/11/18 03:29:22;;;;;;;;;;;26.40;72.60;;;;;;4967004;28;20377;-73
2022/11/18 03:31:55;;;;;;;;;;;25.90;73.60;;;;;;4994238;28;19926;-72
2022/11/18 03:34:29;;;;;;;;;;;25.90;75.20;;;;;;5037689;28;19912;-73
2022/11/18 03:36:58;;;;;;;;;;;26.30;74.50;;;;;;5052109;28;20769;-72
2022/11/18 03:39:25;;;;;;;;;;;26.40;74.60;;;;;;5047696;28;19931;-72
2022/11/18 03:41:57;;;;;;;;;;;26.70;74.80;;;;;;5052217;28;19928;-73
2022/11/18 03:44:27;;;;;;;;;;;26.70;74.50;;;;;;5055617;28;20024;-72
2022/11/18 03:47:20;;;;;;;;;;;26.70;74.80;;;;;;5054113;28;19921;-72
2022/11/18 03:49:50;;;;;;;;;;;27.10;74.90;;;;;;5050409;28;19920;-71
2022/11/18 03:52:19;;;;;;;;;;;27.40;74.30;;;;;;5055720;28;20029;-73
2022/11/18 03:54:47;;;;;;;;;;;27.60;74.60;;;;;;5056069;28;19931;-74
2022/11/18 03:57:21;;;;;;;;;;;27.50;74.30;;;;;;5053617;28;19917;-74
2022/11/18 03:59:51;;;;;;;;;;;27.30;75.40;;;;;;5056020;28;20339;-73
2022/11/18 04:02:23;;;;;;;;;;;27.40;75.40;;;;;;5055518;28;20600;-73
2022/11/18 04:04:50;;;;;;;;;;;27.20;75.30;;;;;;5061229;28;19960;-73
2022/11/18 04:07:35;;;;;;;;;;;26.50;75.40;;;;;;5055201;28;19920;-71
2022/11/18 04:10:02;;;;;;;;;;;26.50;76.60;;;;;;5060925;28;19924;-72
2022/11/18 04:12:31;;;;;;;;;;;26.80;78.80;;;;;;5056202;28;20077;-73
2022/11/18 04:15:02;;;;;;;;;;;27.00;76.50;;;;;;5055157;28;19970;-72
2022/11/18 04:17:29;;;;;;;;;;;27.10;76.80;;;;;;5055022;28;19916;-72
2022/11/18 04:19:55;;;;;;;;;;;26.80;76.10;;;;;;5057781;28;19923;-73
2022/11/18 04:22:28;;;;;;;;;;;26.60;76.30;;;;;;5054921;28;19970;-72
2022/11/18 04:24:55;;;;;;;;;;;26.70;77.40;;;;;;5055070;28;20383;-72
2022/11/18 04:27:21;;;;;;;;;;;26.80;75.70;;;;;;5054852;28;19946;-73
2022/11/18 04:29:48;;;;;;;;;;;26.80;75.80;;;;;;5062292;28;19920;-72
2022/11/18 04:32:17;;;;;;;;;;;26.90;76.50;;;;;;5067665;28;19912;-72
2022/11/18 04:34:44;;;;;;;;;;;26.80;76.30;;;;;;5058736;28;19924;-72
2022/11/18 04:37:11;;;;;;;;;;;26.30;76.80;;;;;;5053697;28;19916;-71
2022/11/18 04:39:40;;;;;;;;;;;26.00;77.20;;;;;;5052080;28;20493;-73
2022/11/18 04:42:06;;;;;;;;;;;25.70;77.90;;;;;;5052881;28;19966;-72
2022/11/18 04:44:33;;;;;;;;;;;25.80;78.00;;;;;;5054142;28;19924;-71
2022/11/18 04:47:02;;;;;;;;;;;25.70;78.20;;;;;;5054444;28;20467;-74
2022/11/18 04:49:29;;;;;;;;;;;25.90;78.60;;;;;;5055155;28;19991;-72
2022/11/18 04:51:56;;;;;;;;;;;26.20;78.70;;;;;;5053977;28;20500;-73
2022/11/18 04:54:23;;;;;;;;;;;26.20;77.80;;;;;;5054594;28;19920;-72
2022/11/18 04:56:50;;;;;;;;;;;26.30;77.80;;;;;;5053959;28;20346;-70
2022/11/18 04:59:20;;;;;;;;;;;26.00;78.10;;;;;;5054133;28;20320;-72
2022/11/18 05:01:48;;;;;;;;;;;25.50;78.80;;;;;;5052690;28;20045;-72
2022/11/18 05:04:15;;;;;;;;;;;24.90;79.50;;;;;;5055156;28;19923;-70
2022/11/18 05:06:42;;;;;;;;;;;24.50;80.40;;;;;;5051544;28;19924;-72
2022/11/18 05:09:09;;;;;;;;;;;24.30;80.50;;;;;;5049785;28;22198;-70
2022/11/18 05:14:20;;;;;;;;;;;24.70;80.60;;;;;;5055366;28;19984;-72
2022/11/18 05:16:47;;;;;;;;;;;25.00;80.40;;;;;;5056327;28;20366;-70
2022/11/18 05:19:13;;;;;;;;;;;25.00;80.30;;;;;;5055630;28;19967;-73
2022/11/18 05:21:40;;;;;;;;;;;25.20;80.40;;;;;;5053495;28;19921;-71
2022/11/18 05:24:07;;;;;;;;;;;25.30;79.60;;;;;;5057829;28;19970;-71
2022/11/18 05:26:33;;;;;;;;;;;25.30;80.00;;;;;;5054684;28;19925;-69
2022/11/18 05:29:01;;;;;;;;;;;25.40;79.50;;;;;;5057802;28;20631;-73
2022/11/18 05:31:28;;;;;;;;;;;25.30;79.10;;;;;;5058951;28;19925;-73
2022/11/18 05:33:54;;;;;;;;;;;25.00;79.80;;;;;;5058214;28;20019;-71
2022/11/18 05:36:23;;;;;;;;;;;24.70;80.00;;;;;;5051691;28;19942;-71
2022/11/18 05:38:49;;;;;;;;;;;24.20;81.10;;;;;;5057960;28;22172;-71
2022/11/18 05:44:02;;;;;;;;;;;24.10;81.70;;;;;;5059117;28;19931;-70
2022/11/18 05:46:28;;;;;;;;;;;23.70;81.90;;;;;;5056616;28;19932;-70
2022/11/18 05:48:56;;;;;;;;;;;23.50;82.10;;;;;;5057426;28;19916;-68
2022/11/18 05:51:23;;;;;;;;;;;23.20;82.90;;;;;;5057228;28;20006;-70
2022/11/18 05:53:51;;;;;;;;;;;23.40;83.70;;;;;;5057442;28;19921;-70
2022/11/18 05:56:27;;;;;;;;;;;23.50;83.20;;;;;;5057728;28;20007;-71
2022/11/18 05:58:53;;;;;;;;;;;23.70;83.40;;;;;;5056731;28;19920;-73
2022/11/18 06:01:28;;;;;;;;;;;23.90;82.50;;;;;;5055884;28;20050;-72
2022/11/18 06:03:55;;;;;;;;;;;23.90;82.20;;;;;;5058295;28;20358;-70
2022/11/18 06:06:22;;;;;;;;;;;23.90;82.80;;;;;;5056126;28;20328;-71
2022/11/18 06:08:57;;;;;;;;;;;24.00;82.30;;;;;;5059437;28;19963;-72
2022/11/18 06:11:24;;;;;;;;;;;23.80;82.30;;;;;;5056661;28;20020;-71
2022/11/18 06:13:56;;;;;;;;;;;23.70;82.70;;;;;;5060148;28;19943;-72
2022/11/18 06:16:24;;;;;;;;;;;23.60;83.00;;;;;;5056783;28;19967;-72
2022/11/18 06:18:51;;;;;;;;;;;23.60;83.00;;;;;;5058631;28;20366;-73
2022/11/18 06:21:18;;;;;;;;;;;23.60;83.00;;;;;;5056201;28;19916;-71
2022/11/18 06:23:44;;;;;;;;;;;23.40;83.10;;;;;;5058620;28;20040;-70
2022/11/18 06:26:13;;;;;;;;;;;23.10;83.80;;;;;;5060223;28;19927;-70
2022/11/18 06:28:39;;;;;;;;;;;22.80;83.80;;;;;;5059689;28;20485;-71
2022/11/18 06:31:06;;;;;;;;;;;22.40;84.80;;;;;;5067181;28;20256;-71
2022/11/18 06:33:33;;;;;;;;;;;22.50;85.10;;;;;;5062314;28;20537;-71
2022/11/18 06:36:00;;;;;;;;;;;22.60;85.00;;;;;;5058286;28;19917;-71
2022/11/18 06:38:26;;;;;;;;;;;22.80;84.60;;;;;;5056972;28;19946;-71
2022/11/18 06:40:53;;;;;;;;;;;22.80;84.40;;;;;;5057717;28;20424;-71
2022/11/18 06:43:38;;;;;;;;;;;23.00;84.50;;;;;;5056747;28;19991;-70
2022/11/18 06:48:51;;;;;;;;;;;22.90;84.80;;;;;;5057587;28;19939;-70
2022/11/18 06:51:18;;;;;;;;;;;22.80;85.40;;;;;;5057014;28;20470;-70
2022/11/18 06:53:45;;;;;;;;;;;22.80;85.60;;;;;;5056594;28;19918;-71
2022/11/18 06:56:12;;;;;;;;;;;22.80;85.60;;;;;;5057600;28;19916;-71
2022/11/18 06:58:39;;;;;;;;;;;22.90;85.40;;;;;;5056898;28;19924;-72
2022/11/18 07:01:13;;;;;;;;;;;22.90;84.70;;;;;;5056268;28;19963;-71
2022/11/18 07:03:41;;;;;;;;;;;22.70;85.30;;;;;;5059339;28;20425;-73
2022/11/18 07:06:08;;;;;;;;;;;22.50;85.50;;;;;;5056524;28;19924;-72
2022/11/18 07:08:36;;;;;;;;;;;22.40;86.10;;;;;;5056864;28;20401;-73
2022/11/18 07:11:04;;;;;;;;;;;22.30;86.00;;;;;;5058603;28;19920;-72
2022/11/18 07:13:34;;;;;;;;;;;22.40;86.30;;;;;;5056560;28;20041;-72
2022/11/18 07:16:08;;;;;;;;;;;22.40;86.10;;;;;;5056828;28;19954;-72
2022/11/18 07:18:40;;;;;;;;;;;22.40;86.10;;;;;;5057007;28;19921;-71
2022/11/18 07:21:08;;;;;;;;;;;22.20;86.10;;;;;;5055774;28;19970;-72
2022/11/18 07:23:35;;;;;;;;;;;22.10;86.90;;;;;;5057095;28;19917;-71
2022/11/18 07:26:02;;;;;;;;;;;22.00;87.40;;;;;;5056666;28;19920;-71
2022/11/18 07:28:29;;;;;;;;;;;22.00;88.40;;;;;;5056542;28;20272;-71
2022/11/18 07:31:04;;;;;;;;;;;21.90;88.70;;;;;;5062779;28;19923;-71
2022/11/18 07:33:32;;;;;;;;;;;21.80;88.90;;;;;;5058421;28;19960;-71
2022/11/18 07:36:02;;;;;;;;;;;21.70;89.80;;;;;;5052937;28;20350;-72
2022/11/18 07:38:29;;;;;;;;;;;21.60;89.90;;;;;;5056403;28;19919;-72
2022/11/18 07:41:04;;;;;;;;;;;21.50;89.90;;;;;;5052494;28;20279;-72
2022/11/18 07:43:32;;;;;;;;;;;21.30;90.10;;;;;;5056074;28;19923;-71
2022/11/18 07:45:58;;;;;;;;;;;21.20;90.40;;;;;;5054992;28;19967;-73
2022/11/18 07:48:25;;;;;;;;;;;21.10;90.30;;;;;;5057715;28;20365;-72
2022/11/18 07:50:52;;;;;;;;;;;21.10;90.40;;;;;;5055225;28;19916;-73
2022/11/18 07:53:19;;;;;;;;;;;21.00;90.20;;;;;;5055275;28;20235;-72
2022/11/18 07:55:46;;;;;;;;;;;21.00;90.30;;;;;;5056023;28;19916;-72
2022/11/18 07:58:12;;;;;;;;;;;21.00;90.30;;;;;;5054869;28;20278;-73
2022/11/18 08:00:40;;;;;;;;;;;20.80;90.30;;;;;;5054234;28;22191;-72
2022/11/18 08:03:07;;;;;;;;;;;20.80;90.30;;;;;;5053070;28;19921;-73
2022/11/18 08:05:33;;;;;;;;;;;20.70;90.30;;;;;;5054975;28;19928;-74
2022/11/18 08:08:00;;;;;;;;;;;20.60;90.40;;;;;;5052121;28;20282;-73
2022/11/18 08:10:27;;;;;;;;;;;20.40;90.60;;;;;;5056182;28;20194;-75
2022/11/18 08:12:55;;;;;;;;;;;20.30;90.70;;;;;;5053562;28;19956;-73
2022/11/18 08:15:21;;;;;;;;;;;20.10;90.90;;;;;;5057211;28;20398;-74
2022/11/18 08:17:48;;;;;;;;;;;20.00;91.10;;;;;;5053047;28;19967;-73
2022/11/18 08:20:15;;;;;;;;;;;19.90;91.40;;;;;;5055544;28;19920;-75
2022/11/18 08:22:41;;;;;;;;;;;19.80;91.60;;;;;;5052797;28;19939;-73
2022/11/18 08:25:08;;;;;;;;;;;19.70;91.80;;;;;;5053719;28;20024;-72
2022/11/18 08:27:35;;;;;;;;;;;19.60;92.10;;;;;;5054336;28;19916;-75
2022/11/18 08:30:02;;;;;;;;;;;19.40;92.40;;;;;;5053538;28;19942;-73
2022/11/18 08:32:29;;;;;;;;;;;19.30;92.80;;;;;;5059161;28;19963;-73
2022/11/18 08:34:56;;;;;;;;;;;19.20;93.10;;;;;;5056680;28;19924;-73
2022/11/18 08:37:22;;;;;;;;;;;19.00;93.60;;;;;;5053454;28;19931;-71
2022/11/18 08:39:49;;;;;;;;;;;18.90;93.80;;;;;;5051499;28;19923;-73
2022/11/18 08:42:16;;;;;;;;;;;18.90;94.20;;;;;;5052213;28;19952;-73
2022/11/18 08:44:42;;;;;;;;;;;18.80;94.30;;;;;;5047043;28;19924;-73
2022/11/18 08:47:09;;;;;;;;;;;18.80;94.60;;;;;;5048808;28;20030;-74
2022/11/18 08:49:36;;;;;;;;;;;18.70;94.40;;;;;;5051803;28;20142;-73
2022/11/18 08:52:02;;;;;;;;;;;18.70;94.80;;;;;;5054569;28;20019;-75
2022/11/18 08:54:30;;;;;;;;;;;18.60;94.90;;;;;;5055191;28;19928;-73
2022/11/18 08:56:57;;;;;;;;;;;18.60;94.70;;;;;;5053168;28;20027;-72
2022/11/18 08:59:23;;;;;;;;;;;18.60;94.90;;;;;;5053679;28;19920;-73
2022/11/18 09:01:50;;;;;;;;;;;18.50;95.20;;;;;;5054547;28;21902;-74
2022/11/18 09:04:17;;;;;;;;;;;18.50;95.30;;;;;;5054145;28;22236;-74
2022/11/18 09:06:46;;;;;;;;;;;18.40;95.40;;;;;;5057745;28;20393;-71
2022/11/18 09:09:18;;;;;;;;;;;18.40;95.60;;;;;;5056166;28;20057;-73
2022/11/18 09:11:44;;;;;;;;;;;18.30;95.80;;;;;;5054955;28;19916;-73
2022/11/18 09:14:11;;;;;;;;;;;18.20;95.90;;;;;;5055478;28;20298;-75
2022/11/18 09:16:38;;;;;;;;;;;18.10;96.10;;;;;;5055019;28;19931;-72
2022/11/18 09:19:07;;;;;;;;;;;18.10;96.30;;;;;;5054264;28;21683;-70
2022/11/18 09:21:36;;;;;;;;;;;18.00;96.40;;;;;;5055867;28;20371;-73
2022/11/18 09:24:04;;;;;;;;;;;17.90;96.80;;;;;;5056060;28;22558;-72
2022/11/18 09:26:31;;;;;;;;;;;17.90;97.00;;;;;;5059115;28;19931;-72
2022/11/18 09:28:58;;;;;;;;;;;17.80;97.20;;;;;;5065061;28;19916;-74
2022/11/18 09:31:24;;;;;;;;;;;17.70;97.30;;;;;;5058523;28;19920;-73
2022/11/18 09:33:51;;;;;;;;;;;17.70;97.60;;;;;;5057575;28;20290;-73
2022/11/18 09:36:19;;;;;;;;;;;17.60;97.80;;;;;;5055233;28;22415;-73
2022/11/18 09:38:49;;;;;;;;;;;17.60;98.00;;;;;;5060007;28;19917;-74
2022/11/18 09:41:22;;;;;;;;;;;17.60;98.30;;;;;;5056642;28;19935;-72
2022/11/18 09:44:07;;;;;;;;;;;17.50;98.40;;;;;;5055893;28;19982;-74
2022/11/18 09:46:33;;;;;;;;;;;17.50;98.60;;;;;;5055085;28;19939;-72
2022/11/18 09:49:13;;;;;;;;;;;17.40;98.70;;;;;;5055072;28;19920;-73
2022/11/18 09:51:45;;;;;;;;;;;17.30;98.80;;;;;;5054353;28;19924;-73
2022/11/18 09:54:20;;;;;;;;;;;17.30;99.10;;;;;;5054659;28;19912;-73
2022/11/18 09:56:48;;;;;;;;;;;17.30;99.20;;;;;;5056447;28;20368;-73
2022/11/18 09:59:17;;;;;;;;;;;17.20;99.20;;;;;;5056727;28;20323;-73
2022/11/18 10:01:44;;;;;;;;;;;17.20;99.50;;;;;;5050880;28;20011;-74
2022/11/18 10:04:18;;;;;;;;;;;17.10;99.60;;;;;;5053021;28;19961;-75
2022/11/18 10:06:45;;;;;;;;;;;17.10;99.80;;;;;;5051966;28;19924;-73
2022/11/18 10:09:12;;;;;;;;;;;17.10;99.90;;;;;;5057324;28;19935;-73
2022/11/18 10:11:39;;;;;;;;;;;17.10;99.90;;;;;;5057826;28;19920;-73
2022/11/18 10:14:23;;;;;;;;;;;17.10;99.90;;;;;;5058430;28;19920;-73
2022/11/18 10:16:50;;;;;;;;;;;17.00;99.90;;;;;;5058005;28;20003;-72
2022/11/18 10:19:20;;;;;;;;;;;16.90;99.90;;;;;;5052686;28;19938;-73
2022/11/18 10:21:58;;;;;;;;;;;16.80;99.90;;;;;;5051883;28;20054;-73
2022/11/18 10:24:28;;;;;;;;;;;16.80;99.90;;;;;;5052715;28;20603;-72
2022/11/18 10:26:56;;;;;;;;;;;16.70;99.90;;;;;;5050594;28;20039;-73
2022/11/18 10:29:22;;;;;;;;;;;16.70;99.90;;;;;;5054319;28;20103;-72
2022/11/18 10:32:12;;;;;;;;;;;16.60;99.90;;;;;;5057589;28;20009;-73
2022/11/18 10:34:48;;;;;;;;;;;16.60;99.90;;;;;;5038708;28;20046;-72
2022/11/18 10:37:26;;;;;;;;;;;16.50;99.90;;;;;;5050837;28;19988;-73
2022/11/18 10:39:53;;;;;;;;;;;16.50;99.90;;;;;;5052873;28;19928;-74
2022/11/18 10:42:38;;;;;;;;;;;16.40;99.90;;;;;;5052825;28;19927;-74
2022/11/18 10:45:14;;;;;;;;;;;16.40;99.90;;;;;;5051047;28;20756;-72
2022/11/18 10:47:41;;;;;;;;;;;16.30;99.90;;;;;;5051445;28;20555;-73
2022/11/18 10:50:28;;;;;;;;;;;16.30;99.90;;;;;;5055733;28;19923;-72
2022/11/18 10:52:55;;;;;;;;;;;16.30;99.90;;;;;;5037921;28;20054;-72
2022/11/18 10:55:25;;;;;;;;;;;16.20;99.90;;;;;;5032265;28;20358;-72
2022/11/18 10:57:54;;;;;;;;;;;16.20;99.90;;;;;;5051421;28;19998;-74
2022/11/18 11:00:38;;;;;;;;;;;16.20;99.90;;;;;;5033840;28;20343;-72
2022/11/18 11:03:25;;;;;;;;;;;16.10;99.90;;;;;;5050328;28;19920;-71
2022/11/18 11:06:09;;;;;;;;;;;16.10;99.90;;;;;;5054681;28;20386;-72
2022/11/18 11:08:45;;;;;;;;;;;16.00;99.90;;;;;;5054117;28;20582;-74
2022/11/18 11:11:24;;;;;;;;;;;16.00;99.90;;;;;;5051914;28;20031;-73
2022/11/18 11:13:53;;;;;;;;;;;15.90;99.90;;;;;;5051065;28;19920;-73
2022/11/18 11:16:20;;;;;;;;;;;15.90;99.90;;;;;;5050164;28;20297;-72
2022/11/18 11:18:51;;;;;;;;;;;15.90;99.90;;;;;;5050873;28;19920;-73
2022/11/18 11:21:21;;;;;;;;;;;15.80;99.90;;;;;;5051567;28;20030;-73
2022/11/18 11:23:48;;;;;;;;;;;15.80;99.90;;;;;;5051647;28;19921;-73
2022/11/18 11:26:14;;;;;;;;;;;15.80;99.90;;;;;;5049367;28;19928;-73
2022/11/18 11:28:50;;;;;;;;;;;15.80;99.90;;;;;;5049963;28;20994;-72
2022/11/18 11:31:17;;;;;;;;;;;15.70;99.90;;;;;;5060704;28;19966;-73
2022/11/18 11:34:06;;;;;;;;;;;15.70;99.90;;;;;;5051648;28;19938;-71
2022/11/18 11:36:44;;;;;;;;;;;15.70;99.90;;;;;;5041183;28;19924;-74
2022/11/18 11:39:17;;;;;;;;;;;15.70;99.90;;;;;;5050853;28;19920;-73
2022/11/18 11:41:43;;;;;;;;;;;15.70;99.90;;;;;;5050313;28;20435;-72
2022/11/18 11:44:28;;;;;;;;;;;15.60;99.90;;;;;;5049077;28;19921;-70
2022/11/18 11:49:44;;;;;;;;;;;15.50;99.90;;;;;;5040938;28;19923;-75
2022/11/18 11:52:16;;;;;;;;;;;15.50;99.90;;;;;;5053231;28;19919;-73
2022/11/18 11:54:54;;;;;;;;;;;15.50;99.90;;;;;;5053736;28;20382;-72
2022/11/18 11:57:30;;;;;;;;;;;15.40;99.90;;;;;;5050481;28;19923;-74
2022/11/18 12:00:04;;;;;;;;;;;15.40;99.90;;;;;;5049969;28;19931;-74
2022/11/18 12:02:31;;;;;;;;;;;15.30;99.90;;;;;;5050063;28;19921;-74
2022/11/18 12:05:10;;;;;;;;;;;15.30;99.90;;;;;;5047247;28;19933;-75
2022/11/18 12:07:56;;;;;;;;;;;15.30;99.90;;;;;;5053506;28;19920;-74
2022/11/18 12:10:35;;;;;;;;;;;15.30;99.90;;;;;;5053369;28;20374;-75
2022/11/18 12:13:20;;;;;;;;;;;15.20;99.90;;;;;;5052765;28;19999;-75
2022/11/18 12:16:05;;;;;;;;;;;15.10;99.90;;;;;;5050450;28;19917;-79
2022/11/18 12:18:35;;;;;;;;;;;15.10;99.90;;;;;;5057025;28;19916;-75
2022/11/18 12:21:01;;;;;;;;;;;15.10;99.90;;;;;;5053289;28;20401;-76
2022/11/18 12:23:29;;;;;;;;;;;15.00;99.90;;;;;;5053207;28;19944;-76
2022/11/18 12:25:58;;;;;;;;;;;15.00;99.90;;;;;;5054641;28;20026;-75
2022/11/18 12:28:31;;;;;;;;;;;15.00;99.90;;;;;;5054999;28;19924;-75
2022/11/18 12:31:16;;;;;;;;;;;14.90;99.90;;;;;;5054348;28;20011;-75
2022/11/18 12:33:47;;;;;;;;;;;14.90;99.90;;;;;;5059951;28;19920;-74
2022/11/18 12:36:27;;;;;;;;;;;14.90;99.90;;;;;;5053757;28;19916;-74
2022/11/18 12:38:54;;;;;;;;;;;14.90;99.90;;;;;;5055000;28;19924;-75
2022/11/18 12:44:25;;;;;;;;;;;14.80;99.90;;;;;;5055521;28;20679;-74
2022/11/18 12:46:53;;;;;;;;;;;14.80;99.90;;;;;;5055670;28;19937;-74
2022/11/18 12:49:23;;;;;;;;;;;14.90;99.90;;;;;;5055653;28;19970;-74
2022/11/18 12:51:50;;;;;;;;;;;14.90;99.90;;;;;;5055293;28;22564;-75
2022/11/18 12:54:32;;;;;;;;;;;14.90;99.90;;;;;;5055980;28;20355;-77
2022/11/18 12:57:03;;;;;;;;;;;14.90;99.90;;;;;;5055990;28;19941;-75
2022/11/18 12:59:32;;;;;;;;;;;14.90;99.90;;;;;;5054319;28;20337;-76
2022/11/18 13:02:24;;;;;;;;;;;14.90;99.90;;;;;;5055131;28;20456;-75
2022/11/18 13:05:11;;;;;;;;;;;14.80;99.90;;;;;;5050680;28;19959;-74
2022/11/18 13:10:45;;;;;;;;;;;14.70;99.90;;;;;;5056309;28;19969;-76
2022/11/18 13:13:27;;;;;;;;;;;14.70;99.90;;;;;;5055369;28;19916;-76
2022/11/18 13:18:50;;;;;;;;;;;14.60;99.90;;;;;;5040253;28;20061;-75
2022/11/18 13:24:12;;;;;;;;;;;14.40;99.90;;;;;;5055500;28;20334;-76
2022/11/18 13:26:40;;;;;;;;;;;14.30;99.90;;;;;;5055406;28;20306;-76
2022/11/18 13:29:22;;;;;;;;;;;14.40;99.90;;;;;;5054485;28;19923;-76
2022/11/18 13:32:01;;;;;;;;;;;14.30;99.90;;;;;;5058218;28;19913;-75
2022/11/18 13:34:28;;;;;;;;;;;14.20;99.90;;;;;;5054618;28;19927;-75
2022/11/18 13:36:56;;;;;;;;;;;14.20;99.90;;;;;;5056962;28;21023;-75
2022/11/18 13:39:31;;;;;;;;;;;14.10;99.90;;;;;;5059538;28;20488;-74
2022/11/18 13:42:17;;;;;;;;;;;14.10;99.90;;;;;;5058577;28;19921;-76
2022/11/18 13:44:46;;;;;;;;;;;14.10;99.90;;;;;;5043855;28;20381;-75
2022/11/18 13:47:21;;;;;;;;;;;14.00;99.90;;;;;;5064648;28;19913;-76
2022/11/18 13:49:53;;;;;;;;;;;14.00;99.90;;;;;;5062085;28;19966;-75
2022/11/18 13:52:26;;;;;;;;;;;14.00;99.90;;;;;;5059153;28;19927;-74
2022/11/18 13:54:55;;;;;;;;;;;13.90;99.90;;;;;;5057498;28;19947;-74
2022/11/18 13:57:23;;;;;;;;;;;13.90;99.90;;;;;;5058844;28;19967;-76
2022/11/18 13:59:50;;;;;;;;;;;13.80;99.90;;;;;;5058624;28;19948;-74
2022/11/18 14:02:17;;;;;;;;;;;13.80;99.90;;;;;;5057485;28;19924;-75
2022/11/18 14:04:53;;;;;;;;;;;13.80;99.90;;;;;;5058257;28;19913;-74
2022/11/18 14:07:25;;;;;;;;;;;13.80;99.90;;;;;;5058808;28;19921;-75
2022/11/18 14:10:06;;;;;;;;;;;13.80;99.90;;;;;;5057650;28;19932;-75
2022/11/18 14:12:33;;;;;;;;;;;13.80;99.90;;;;;;5058451;28;19920;-73
2022/11/18 14:15:15;;;;;;;;;;;13.70;99.90;;;;;;5056334;28;20214;-74
2022/11/18 14:17:52;;;;;;;;;;;13.70;99.90;;;;;;5058435;28;20439;-75
2022/11/18 14:20:19;;;;;;;;;;;13.60;99.90;;;;;;5057946;28;19920;-75
2022/11/18 14:22:47;;;;;;;;;;;13.60;99.90;;;;;;5058249;28;20374;-74
2022/11/18 14:25:19;;;;;;;;;;;13.50;99.90;;;;;;5060335;28;19924;-75
2022/11/18 14:27:50;;;;;;;;;;;13.60;99.90;;;;;;5058544;28;19959;-76
2022/11/18 14:30:33;;;;;;;;;;;13.60;99.90;;;;;;5059061;28;19916;-76
2022/11/18 14:33:06;;;;;;;;;;;13.50;99.90;;;;;;5061752;28;19927;-73
2022/11/18 14:35:33;;;;;;;;;;;13.50;99.90;;;;;;5055945;28;20378;-77
2022/11/18 14:37:59;;;;;;;;;;;13.50;99.90;;;;;;5057793;28;20381;-77
2022/11/18 14:40:26;;;;;;;;;;;13.50;99.90;;;;;;5058251;28;20015;-77
2022/11/18 14:42:52;;;;;;;;;;;13.50;99.90;;;;;;5058455;28;19913;-77
2022/11/18 14:45:19;;;;;;;;;;;13.50;99.90;;;;;;5056739;28;19924;-77
2022/11/18 14:47:46;;;;;;;;;;;13.40;99.90;;;;;;5056751;28;19917;-75
2022/11/18 14:50:13;;;;;;;;;;;13.50;99.90;;;;;;5058119;28;19958;-76
2022/11/18 14:52:39;;;;;;;;;;;13.40;99.90;;;;;;5057684;28;19921;-76
2022/11/18 14:55:06;;;;;;;;;;;13.40;99.90;;;;;;5056918;28;19927;-76
2022/11/18 14:57:33;;;;;;;;;;;13.30;99.90;;;;;;5056878;28;19916;-78
2022/11/18 14:59:59;;;;;;;;;;;13.30;99.90;;;;;;5057303;28;19971;-78
2022/11/18 15:02:26;;;;;;;;;;;13.30;99.90;;;;;;5059387;28;19920;-76